createdAt,value
2016-09-12T00:00:24.446Z,97.92
2016-09-12T00:01:25.577Z,98.14
2016-09-12T00:02:30.816Z,98.02
2016-09-12T00:03:25.313Z,97.84
2016-09-12T00:04:28.986Z,97.80
2016-09-12T00:05:25.612Z,97.79
2016-09-12T00:06:29.187Z,98.40
2016-09-12T00:07:30.328Z,98.31
2016-09-12T00:08:30.551Z,98.14
2016-09-12T00:09:30.938Z,98.01
2016-09-12T00:10:32.638Z,98.24
2016-09-12T00:11:30.855Z,98.14
2016-09-12T00:12:25.881Z,98.19
2016-09-12T00:15:26.560Z,97.82
2016-09-12T00:16:24.834Z,97.51
2016-09-12T00:17:28.393Z,97.40
2016-09-12T00:18:30.167Z,97.38
2016-09-12T00:19:38.746Z,97.18
2016-09-12T00:20:36.111Z,97.48
2016-09-12T00:21:30.984Z,97.45
2016-09-12T00:22:37.979Z,97.46
2016-09-12T00:23:32.364Z,97.63
2016-09-12T00:24:32.611Z,97.63
2016-09-12T00:25:32.768Z,97.48
2016-09-12T00:26:30.872Z,97.74
2016-09-12T00:27:39.842Z,97.83
2016-09-12T00:29:30.963Z,97.88
2016-09-12T00:30:30.895Z,97.60
2016-09-12T00:31:29.959Z,97.50
2016-09-12T00:32:42.385Z,97.41
2016-09-12T00:34:40.033Z,97.77
2016-09-12T00:35:30.387Z,97.60
2016-09-12T00:36:31.447Z,97.44
2016-09-12T00:37:38.262Z,97.65
2016-09-12T00:38:37.082Z,97.53
2016-09-12T00:39:44.818Z,97.74
2016-09-12T00:40:53.677Z,97.60
2016-09-12T00:41:30.958Z,97.25
2016-09-12T00:42:26.025Z,97.17
2016-09-12T00:43:32.233Z,97.47
2016-09-12T00:44:22.712Z,97.49
2016-09-12T00:45:33.013Z,97.75
2016-09-12T00:46:25.089Z,97.91
2016-09-12T00:47:37.495Z,97.79
2016-09-12T00:48:30.377Z,98.02
2016-09-12T00:49:33.327Z,97.90
2016-09-12T00:50:48.332Z,98.08
2016-09-12T00:52:34.071Z,98.00
2016-09-12T00:53:39.868Z,98.07
2016-09-12T00:54:44.751Z,98.09
2016-09-12T00:55:44.100Z,97.79
2016-09-12T00:56:26.693Z,97.61
2016-09-12T00:57:25.300Z,97.46
2016-09-12T00:58:31.329Z,97.58
2016-09-12T00:59:31.749Z,97.50
2016-09-12T01:00:26.107Z,97.21
2016-09-12T01:01:44.143Z,97.15
2016-09-12T01:02:43.672Z,97.24
2016-09-12T01:03:30.891Z,96.98
2016-09-12T01:04:30.745Z,96.60
2016-09-12T01:05:38.930Z,97.16
2016-09-12T01:06:29.873Z,97.62
2016-09-12T01:07:31.176Z,97.81
2016-09-12T01:08:30.412Z,97.58
2016-09-12T01:09:28.037Z,97.39
2016-09-12T01:10:59.441Z,97.35
2016-09-12T01:12:00.454Z,97.26
2016-09-12T01:12:39.651Z,97.24
2016-09-12T01:13:39.926Z,97.06
2016-09-12T01:14:32.450Z,97.45
2016-09-12T01:15:42.994Z,97.49
2016-09-12T01:16:32.300Z,97.43
2016-09-12T01:17:38.917Z,97.74
2016-09-12T01:18:35.720Z,97.77
2016-09-12T01:19:33.423Z,97.93
2016-09-12T01:20:25.069Z,97.73
2016-09-12T01:21:28.148Z,98.01
2016-09-12T01:22:31.614Z,97.96
2016-09-12T01:23:43.571Z,97.76
2016-09-12T01:24:59.070Z,97.87
2016-09-12T01:25:49.166Z,97.87
2016-09-12T01:26:36.633Z,97.73
2016-09-12T01:27:29.354Z,97.80
2016-09-12T01:28:42.521Z,97.65
2016-09-12T01:29:23.806Z,97.62
2016-09-12T01:30:39.957Z,98.13
2016-09-12T01:31:39.191Z,98.56
2016-09-12T01:32:47.403Z,98.30
2016-09-12T01:33:43.130Z,97.81
2016-09-12T01:34:29.369Z,98.32
2016-09-12T01:35:38.647Z,98.18
2016-09-12T01:36:37.085Z,98.08
2016-09-12T01:37:32.492Z,97.84
2016-09-12T01:38:34.405Z,98.01
2016-09-12T01:39:33.230Z,97.87
2016-09-12T01:40:29.631Z,97.52
2016-09-12T01:41:26.516Z,97.90
2016-09-12T01:42:45.239Z,98.01
2016-09-12T01:43:31.358Z,97.85
2016-09-12T01:44:29.875Z,98.25
2016-09-12T01:45:29.732Z,98.08
2016-09-12T01:46:30.599Z,98.30
2016-09-12T01:47:38.178Z,97.99
2016-09-12T01:48:32.877Z,98.13
2016-09-12T01:49:36.107Z,97.92
2016-09-12T01:50:36.181Z,97.87
2016-09-12T01:51:25.203Z,97.93
2016-09-12T01:52:30.368Z,97.52
2016-09-12T01:53:30.333Z,97.67
2016-09-12T01:54:34.775Z,97.77
2016-09-12T01:55:27.896Z,97.46
2016-09-12T01:56:32.268Z,97.68
2016-09-12T01:57:29.658Z,97.78
2016-09-12T01:58:39.417Z,97.79
2016-09-12T02:00:28.793Z,98.43
2016-09-12T02:01:32.938Z,98.09
2016-09-12T02:02:29.656Z,97.90
2016-09-12T02:03:33.683Z,97.95
2016-09-12T02:04:28.168Z,97.96
2016-09-12T02:05:33.010Z,97.95
2016-09-12T02:06:31.051Z,97.83
2016-09-12T02:07:43.585Z,98.28
2016-09-12T02:08:33.839Z,98.43
2016-09-12T02:09:32.009Z,98.66
2016-09-12T02:10:28.642Z,98.72
2016-09-12T02:11:28.631Z,98.28
2016-09-12T02:12:34.804Z,98.24
2016-09-12T02:13:25.898Z,98.25
2016-09-12T02:14:32.270Z,98.05
2016-09-12T02:15:30.292Z,97.99
2016-09-12T02:16:30.660Z,97.73
2016-09-12T02:17:35.148Z,97.82
2016-09-12T02:18:34.201Z,97.58
2016-09-12T02:19:43.541Z,98.03
2016-09-12T02:20:37.736Z,98.55
2016-09-12T02:21:30.479Z,98.69
2016-09-12T02:22:32.721Z,99.19
2016-09-12T02:23:25.861Z,98.79
2016-09-12T02:24:34.018Z,98.86
2016-09-12T02:25:26.636Z,98.76
2016-09-12T02:26:33.418Z,98.41
2016-09-12T02:27:35.320Z,98.12
2016-09-12T02:28:33.238Z,98.64
2016-09-12T02:29:28.330Z,98.47
2016-09-12T02:30:43.192Z,98.46
2016-09-12T02:32:30.194Z,98.36
2016-09-12T02:33:32.157Z,98.22
2016-09-12T02:34:39.461Z,98.24
2016-09-12T02:35:29.917Z,98.29
2016-09-12T02:36:31.444Z,97.90
2016-09-12T02:37:38.393Z,98.17
2016-09-12T02:38:36.383Z,98.38
2016-09-12T02:39:31.438Z,98.52
2016-09-12T02:40:32.637Z,98.38
2016-09-12T02:41:19.448Z,98.46
2016-09-12T02:42:43.864Z,98.53
2016-09-12T02:43:34.044Z,98.43
2016-09-12T02:44:31.866Z,98.44
2016-09-12T02:45:24.993Z,98.14
2016-09-12T02:46:39.940Z,97.74
2016-09-12T02:47:25.059Z,97.46
2016-09-12T02:48:30.671Z,97.47
2016-09-12T02:49:37.950Z,97.67
2016-09-12T02:50:26.377Z,97.51
2016-09-12T02:51:30.566Z,97.98
2016-09-12T02:52:36.484Z,98.12
2016-09-12T02:53:38.604Z,98.26
2016-09-12T02:54:30.357Z,98.02
2016-09-12T02:55:27.453Z,97.69
2016-09-12T02:56:28.673Z,97.84
2016-09-12T02:57:38.730Z,97.65
2016-09-12T02:58:39.686Z,97.70
2016-09-12T02:59:31.065Z,97.92
2016-09-12T03:00:38.701Z,97.53
2016-09-12T03:01:25.864Z,97.49
2016-09-12T03:02:36.351Z,97.34
2016-09-12T03:03:40.786Z,97.37
2016-09-12T03:04:30.089Z,97.68
2016-09-12T03:05:26.710Z,97.95
2016-09-12T03:06:33.421Z,97.71
2016-09-12T03:08:36.544Z,97.76
2016-09-12T03:09:29.025Z,97.87
2016-09-12T03:10:37.519Z,97.74
2016-09-12T03:11:31.308Z,97.75
2016-09-12T03:12:33.713Z,97.65
2016-09-12T03:13:30.884Z,97.94
2016-09-12T03:15:30.570Z,98.03
2016-09-12T03:16:30.523Z,98.06
2016-09-12T03:17:29.415Z,98.00
2016-09-12T03:18:32.478Z,97.82
2016-09-12T03:19:38.469Z,98.23
2016-09-12T03:20:33.385Z,97.94
2016-09-12T03:21:22.055Z,97.62
2016-09-12T03:22:37.152Z,97.56
2016-09-12T03:23:34.635Z,97.29
2016-09-12T03:24:27.180Z,97.72
2016-09-12T03:25:30.959Z,98.18
2016-09-12T03:26:41.986Z,97.87
2016-09-12T03:27:42.028Z,97.60
2016-09-12T03:28:34.670Z,97.39
2016-09-12T03:29:48.103Z,97.40
2016-09-12T03:30:56.555Z,97.29
2016-09-12T03:31:39.612Z,97.13
2016-09-12T03:32:30.599Z,97.10
2016-09-12T03:33:33.685Z,96.96
2016-09-12T03:34:26.940Z,97.29
2016-09-12T03:35:31.209Z,97.74
2016-09-12T03:36:30.650Z,98.03
2016-09-12T03:37:25.322Z,97.60
2016-09-12T03:38:31.297Z,97.29
2016-09-12T03:39:34.723Z,97.64
2016-09-12T03:40:45.071Z,97.68
2016-09-12T03:41:23.216Z,97.70
2016-09-12T03:42:32.159Z,97.42
2016-09-12T03:43:32.738Z,97.52
2016-09-12T03:44:23.848Z,97.84
2016-09-12T03:46:34.971Z,97.37
2016-09-12T03:47:34.339Z,97.15
2016-09-12T03:48:33.673Z,97.14
2016-09-12T03:49:33.854Z,97.07
2016-09-12T03:50:35.813Z,97.75
2016-09-12T03:51:25.473Z,97.55
2016-09-12T03:52:45.183Z,97.89
2016-09-12T03:53:30.783Z,97.93
2016-09-12T03:54:39.575Z,97.60
2016-09-12T03:55:30.434Z,97.67
2016-09-12T03:56:24.944Z,97.73
2016-09-12T03:57:33.092Z,98.21
2016-09-12T03:58:29.957Z,98.29
2016-09-12T03:59:31.467Z,98.11
2016-09-12T04:00:34.870Z,98.07
2016-09-12T04:01:43.673Z,97.92
2016-09-12T04:02:39.386Z,97.66
2016-09-12T04:03:30.833Z,97.62
2016-09-12T04:04:29.944Z,97.80
2016-09-12T04:05:33.517Z,98.25
2016-09-12T04:06:44.015Z,98.44
2016-09-12T04:07:30.419Z,98.19
2016-09-12T04:08:36.327Z,98.48
2016-09-12T04:09:29.536Z,98.36
2016-09-12T04:10:30.671Z,98.67
2016-09-12T04:11:32.190Z,98.39
2016-09-12T04:12:31.831Z,98.60
2016-09-12T04:13:35.625Z,98.61
2016-09-12T04:14:29.395Z,99.01
2016-09-12T04:15:43.185Z,98.80
2016-09-12T04:16:48.663Z,98.52
2016-09-12T04:17:31.189Z,98.40
2016-09-12T04:18:27.962Z,98.38
2016-09-12T04:19:34.579Z,98.47
2016-09-12T04:20:55.810Z,98.73
2016-09-12T04:21:34.783Z,98.73
2016-09-12T04:22:52.143Z,98.64
2016-09-12T04:23:39.573Z,98.60
2016-09-12T04:24:30.328Z,98.82
2016-09-12T04:25:38.115Z,98.91
2016-09-12T04:26:32.226Z,99.03
2016-09-12T04:27:34.353Z,98.90
2016-09-12T04:28:37.757Z,99.16
2016-09-12T04:29:23.181Z,99.44
2016-09-12T04:30:56.205Z,99.83
2016-09-12T04:31:29.836Z,99.61
2016-09-12T04:33:38.055Z,99.44
2016-09-12T04:33:49.587Z,99.34
2016-09-12T04:34:57.772Z,99.33
2016-09-12T04:35:34.151Z,99.37
2016-09-12T04:36:55.363Z,99.28
2016-09-12T04:37:24.684Z,99.36
2016-09-12T04:38:29.454Z,99.45
2016-09-12T04:39:30.326Z,99.28
2016-09-12T04:40:35.637Z,99.11
2016-09-12T04:42:36.150Z,99.55
2016-09-12T04:43:38.143Z,99.50
2016-09-12T04:44:25.537Z,99.49
2016-09-12T04:45:25.627Z,99.28
2016-09-12T04:46:30.826Z,99.09
2016-09-12T04:47:33.535Z,99.20
2016-09-12T04:48:30.120Z,99.11
2016-09-12T04:49:34.412Z,99.26
2016-09-12T04:50:30.353Z,99.52
2016-09-12T04:52:31.899Z,99.81
2016-09-12T04:53:39.077Z,99.43
2016-09-12T04:54:32.540Z,99.65
2016-09-12T04:55:43.812Z,99.73
2016-09-12T04:56:38.094Z,99.71
2016-09-12T04:57:26.086Z,99.58
2016-09-12T04:58:34.309Z,99.44
2016-09-12T04:59:33.276Z,99.44
2016-09-12T05:01:28.374Z,99.53
2016-09-12T05:02:34.645Z,99.47
2016-09-12T05:03:32.977Z,99.35
2016-09-12T05:04:27.594Z,99.45
2016-09-12T05:05:36.126Z,99.90
2016-09-12T05:06:34.470Z,99.84
2016-09-12T05:07:37.631Z,99.98
2016-09-12T05:08:33.410Z,100.00
2016-09-12T05:09:35.682Z,100.00
2016-09-12T05:10:23.938Z,100.00
2016-09-12T05:11:36.052Z,99.89
2016-09-12T05:12:25.907Z,99.72
2016-09-12T05:13:31.219Z,99.74
2016-09-12T05:14:51.029Z,99.75
2016-09-12T05:18:10.354Z,99.12
2016-09-12T05:19:08.684Z,99.07
2016-09-12T05:21:34.938Z,99.76
2016-09-12T05:22:48.940Z,99.29
2016-09-12T05:23:43.707Z,99.30
2016-09-12T05:24:31.626Z,99.22
2016-09-12T05:25:29.215Z,99.18
2016-09-12T05:27:17.701Z,99.16
2016-09-12T05:27:37.196Z,98.92
2016-09-12T05:28:35.630Z,98.84
2016-09-12T05:29:44.953Z,98.70
2016-09-12T05:30:30.733Z,98.79
2016-09-12T05:31:25.831Z,98.72
2016-09-12T05:32:44.230Z,98.51
2016-09-12T05:33:38.246Z,98.54
2016-09-12T05:34:44.112Z,98.66
2016-09-12T05:35:23.638Z,98.76
2016-09-12T05:36:26.921Z,98.92
2016-09-12T05:37:30.505Z,98.83
2016-09-12T05:38:31.049Z,99.08
2016-09-12T05:39:24.641Z,98.91
2016-09-12T05:40:29.217Z,98.91
2016-09-12T05:41:32.548Z,99.03
2016-09-12T05:42:22.917Z,98.90
2016-09-12T05:43:26.452Z,98.89
2016-09-12T05:44:33.289Z,99.16
2016-09-12T05:45:32.716Z,99.32
2016-09-12T05:46:23.478Z,99.20
2016-09-12T05:47:33.054Z,99.23
2016-09-12T05:48:29.975Z,99.51
2016-09-12T05:49:27.194Z,99.61
2016-09-12T05:50:38.712Z,99.63
2016-09-12T05:51:38.834Z,99.51
2016-09-12T05:52:43.855Z,99.32
2016-09-12T05:53:31.344Z,99.06
2016-09-12T05:54:50.209Z,99.05
2016-09-12T05:55:31.183Z,99.19
2016-09-12T05:56:26.520Z,98.95
2016-09-12T05:57:32.591Z,98.74
2016-09-12T05:58:23.508Z,98.75
2016-09-12T05:59:33.646Z,98.72
2016-09-12T06:00:29.862Z,98.59
2016-09-12T06:01:32.975Z,98.53
2016-09-12T06:02:34.662Z,98.73
2016-09-12T06:03:33.004Z,98.84
2016-09-12T06:04:31.131Z,98.81
2016-09-12T06:05:34.291Z,98.51
2016-09-12T06:06:28.758Z,98.17
2016-09-12T06:07:24.914Z,97.92
2016-09-12T06:08:31.040Z,97.89
2016-09-12T06:09:50.729Z,97.81
2016-09-12T06:11:37.321Z,97.76
2016-09-12T06:12:33.895Z,97.94
2016-09-12T06:14:34.609Z,97.27
2016-09-12T06:15:31.936Z,97.04
2016-09-12T06:16:24.255Z,96.84
2016-09-12T06:17:26.684Z,97.12
2016-09-12T06:18:30.422Z,96.65
2016-09-12T06:19:25.969Z,96.70
2016-09-12T06:20:48.203Z,96.93
2016-09-12T06:21:33.642Z,97.32
2016-09-12T06:24:44.994Z,97.41
2016-09-12T06:24:44.999Z,97.79
2016-09-12T06:24:45.005Z,97.42
2016-09-12T06:25:28.868Z,96.89
2016-09-12T06:26:29.441Z,96.62
2016-09-12T06:27:25.882Z,96.81
2016-09-12T06:28:30.262Z,96.87
2016-09-12T06:29:36.667Z,97.31
2016-09-12T06:30:32.743Z,97.40
2016-09-12T06:31:24.698Z,97.24
2016-09-12T06:32:32.937Z,96.98
2016-09-12T06:33:30.497Z,96.88
2016-09-12T06:34:28.030Z,96.82
2016-09-12T06:35:30.839Z,96.49
2016-09-12T06:36:37.717Z,96.91
2016-09-12T06:37:30.578Z,96.71
2016-09-12T06:38:34.969Z,97.01
2016-09-12T06:39:38.754Z,96.41
2016-09-12T06:41:31.973Z,95.38
2016-09-12T06:58:55.355Z,93.95
2016-09-12T06:58:55.365Z,95.52
2016-09-12T07:03:27.005Z,94.45
2016-09-12T07:11:53.519Z,91.08
2016-09-12T12:49:54.957Z,44.98
2016-09-12T12:50:47.676Z,45.47
2016-09-12T12:51:32.446Z,44.70
2016-09-12T12:51:40.742Z,45.31
2016-09-12T12:51:46.981Z,45.29
2016-09-12T12:52:42.020Z,45.79
2016-09-12T12:53:23.877Z,45.14
2016-09-12T12:54:35.285Z,46.58
2016-09-12T12:55:42.349Z,45.40
2016-09-12T12:57:28.600Z,45.47
2016-09-12T12:58:28.644Z,45.72
2016-09-12T12:59:34.625Z,46.55
2016-09-12T13:00:31.938Z,46.69
2016-09-12T13:01:39.632Z,46.84
2016-09-12T13:02:25.843Z,45.90
2016-09-12T13:03:28.674Z,44.16
2016-09-12T13:04:38.574Z,44.68
2016-09-12T13:06:41.473Z,44.16
2016-09-12T13:07:36.854Z,44.38
2016-09-12T13:09:25.088Z,42.92
2016-09-12T13:12:37.826Z,42.60
2016-09-12T13:13:24.508Z,42.62
2016-09-12T13:14:28.374Z,42.98
2016-09-12T13:15:39.698Z,43.67
2016-09-12T13:17:28.582Z,42.90
2016-09-12T13:18:44.938Z,42.31
2016-09-12T13:20:41.128Z,43.15
2016-09-12T13:21:23.570Z,41.53
2016-09-12T13:22:37.310Z,41.98
2016-09-12T13:24:43.315Z,42.72
2016-09-12T13:25:42.564Z,43.09
2016-09-12T13:26:37.881Z,43.11
2016-09-12T13:27:28.664Z,43.99
2016-09-12T13:28:32.531Z,43.59
2016-09-12T13:30:52.107Z,43.56
2016-09-12T13:31:33.920Z,43.46
2016-09-12T13:32:33.669Z,43.58
2016-09-12T13:33:40.141Z,44.02
2016-09-12T13:34:34.323Z,43.80
2016-09-12T13:35:33.644Z,44.44
2016-09-12T13:36:37.067Z,44.77
2016-09-12T13:37:36.514Z,45.01
2016-09-12T13:38:36.293Z,45.32
2016-09-12T13:39:34.479Z,45.56
2016-09-12T13:40:23.630Z,45.90
2016-09-12T13:41:37.140Z,46.22
2016-09-12T13:42:25.267Z,45.86
2016-09-12T13:43:35.317Z,45.15
2016-09-12T13:45:33.527Z,45.98
2016-09-12T13:46:31.040Z,46.58
2016-09-12T13:47:34.206Z,46.19
2016-09-12T13:48:34.346Z,46.26
2016-09-12T13:49:28.363Z,45.96
2016-09-12T13:50:42.502Z,45.64
2016-09-12T13:51:36.922Z,45.77
2016-09-12T13:52:23.099Z,45.94
2016-09-12T13:53:43.478Z,45.82
2016-09-12T13:54:24.611Z,45.21
2016-09-12T13:55:36.910Z,45.80
2016-09-12T13:56:31.369Z,46.19
2016-09-12T13:57:23.485Z,46.58
2016-09-12T13:58:36.777Z,45.31
2016-09-12T13:59:25.692Z,45.28
2016-09-12T14:00:31.248Z,46.61
2016-09-12T14:01:34.325Z,47.20
2016-09-12T14:02:38.702Z,46.83
2016-09-12T14:03:38.829Z,46.56
2016-09-12T14:04:37.231Z,45.96
2016-09-12T14:05:36.589Z,46.45
2016-09-12T14:06:35.738Z,46.60
2016-09-12T14:07:25.681Z,46.67
2016-09-12T14:08:37.005Z,46.76
2016-09-12T14:09:33.589Z,46.75
2016-09-12T14:10:24.053Z,46.79
2016-09-12T14:11:35.779Z,46.44
2016-09-12T14:12:30.979Z,46.47
2016-09-12T14:13:36.476Z,45.98
2016-09-12T14:14:24.458Z,45.83
2016-09-12T14:15:30.494Z,45.74
2016-09-12T14:16:33.638Z,46.11
2016-09-12T14:17:37.012Z,45.82
2016-09-12T14:18:35.735Z,46.16
2016-09-12T14:19:35.878Z,46.03
2016-09-12T14:20:34.956Z,45.93
2016-09-12T14:21:25.098Z,46.24
2016-09-12T14:22:34.295Z,46.55
2016-09-12T14:23:34.073Z,46.76
2016-09-12T14:24:34.350Z,46.37
2016-09-12T14:25:30.877Z,46.33
2016-09-12T14:26:35.823Z,46.87
2016-09-12T14:27:36.762Z,47.02
2016-09-12T14:28:37.072Z,46.98
2016-09-12T14:29:37.187Z,46.95
2016-09-12T14:30:43.179Z,46.81
2016-09-12T14:32:40.142Z,46.98
2016-09-12T14:33:36.389Z,47.70
2016-09-12T14:36:32.498Z,46.97
2016-09-12T14:37:36.889Z,47.13
2016-09-12T14:39:32.239Z,47.32
2016-09-12T14:42:35.727Z,47.29
2016-09-12T14:43:24.856Z,46.95
2016-09-12T14:44:30.715Z,47.01
2016-09-12T14:45:38.464Z,47.09
2016-09-12T14:46:18.328Z,47.60
2016-09-12T14:47:28.008Z,48.42
2016-09-12T14:48:31.439Z,49.05
2016-09-12T14:49:24.063Z,48.68
2016-09-12T14:51:38.981Z,48.22
2016-09-12T14:52:29.986Z,48.37
2016-09-12T14:53:32.549Z,48.77
2016-09-12T14:54:29.489Z,48.30
2016-09-12T14:55:29.127Z,50.15
2016-09-12T14:56:42.460Z,49.44
2016-09-12T14:58:18.650Z,48.80
2016-09-12T15:01:35.311Z,49.36
2016-09-12T15:02:36.721Z,47.94
2016-09-12T15:06:44.962Z,47.74
2016-09-12T15:07:36.223Z,46.43
2016-09-12T15:08:36.481Z,46.71
2016-09-12T15:09:24.577Z,47.25
2016-09-12T15:10:25.687Z,47.55
2016-09-12T15:11:31.545Z,48.39
2016-09-12T15:12:24.010Z,49.21
2016-09-12T15:13:34.155Z,49.66
2016-09-12T15:14:24.960Z,49.79
2016-09-12T15:15:25.062Z,49.19
2016-09-12T15:16:34.419Z,49.03
2016-09-12T15:17:35.735Z,48.82
2016-09-12T15:18:32.517Z,49.16
2016-09-12T15:21:34.842Z,47.38
2016-09-12T15:22:28.297Z,48.28
2016-09-12T15:23:28.950Z,47.96
2016-09-12T15:24:43.083Z,48.29
2016-09-12T15:26:37.450Z,49.33
2016-09-12T15:27:40.274Z,49.49
2016-09-12T15:29:36.816Z,49.56
2016-09-12T15:30:37.268Z,49.41
2016-09-12T15:31:37.192Z,49.44
2016-09-12T15:32:42.230Z,49.17
2016-09-12T15:33:42.335Z,49.51
2016-09-12T15:34:40.078Z,50.00
2016-09-12T15:35:37.380Z,49.62
2016-09-12T15:36:28.657Z,48.81
2016-09-12T15:37:36.998Z,49.12
2016-09-12T15:38:36.652Z,48.84
2016-09-12T15:39:37.087Z,48.68
2016-09-12T15:40:37.502Z,48.91
2016-09-12T15:41:29.150Z,48.71
2016-09-12T15:42:27.978Z,48.67
2016-09-12T15:43:30.139Z,48.74
2016-09-12T15:44:36.464Z,48.26
2016-09-12T15:45:37.148Z,47.54
2016-09-12T15:46:34.422Z,46.76
2016-09-12T15:47:24.691Z,46.91
2016-09-12T15:48:40.075Z,46.83
2016-09-12T15:49:34.319Z,46.70
2016-09-12T15:50:37.725Z,47.03
2016-09-12T15:51:24.718Z,46.59
2016-09-12T15:52:34.799Z,46.81
2016-09-12T15:53:35.738Z,47.34
2016-09-12T15:54:34.883Z,47.76
2016-09-12T15:55:34.819Z,47.27
2016-09-12T15:56:24.293Z,46.85
2016-09-12T15:57:32.785Z,47.07
2016-09-12T15:58:38.102Z,47.52
2016-09-12T15:59:41.537Z,47.55
2016-09-12T16:00:28.997Z,47.42
2016-09-12T16:01:36.276Z,47.75
2016-09-12T16:03:37.741Z,47.84
2016-09-12T16:04:37.536Z,47.76
2016-09-12T16:05:24.659Z,47.73
2016-09-12T16:06:23.940Z,47.90
2016-09-12T16:07:23.203Z,48.51
2016-09-12T16:08:35.978Z,48.40
2016-09-12T16:09:36.275Z,48.27
2016-09-12T16:10:30.202Z,48.28
2016-09-12T16:11:37.469Z,48.25
2016-09-12T16:12:38.001Z,48.63
2016-09-12T16:13:36.404Z,48.67
2016-09-12T16:14:38.580Z,48.90
2016-09-12T16:15:41.820Z,49.38
2016-09-12T16:16:34.944Z,49.41
2016-09-12T16:17:40.405Z,48.86
2016-09-12T16:18:34.788Z,48.75
2016-09-12T16:20:24.255Z,48.89
2016-09-12T16:21:31.469Z,48.76
2016-09-12T16:23:35.710Z,49.15
2016-09-12T16:24:34.833Z,49.28
2016-09-12T16:25:36.578Z,49.25
2016-09-12T16:26:32.896Z,49.35
2016-09-12T16:27:37.356Z,49.47
2016-09-12T16:28:24.794Z,49.62
2016-09-12T16:29:18.468Z,49.74
2016-09-12T16:30:25.008Z,50.20
2016-09-12T16:31:37.447Z,51.17
2016-09-12T16:32:24.565Z,51.10
2016-09-12T16:33:29.137Z,51.02
2016-09-12T16:34:24.642Z,50.68
2016-09-12T16:35:34.945Z,51.10
2016-09-12T16:36:36.204Z,50.95
2016-09-12T16:37:24.391Z,50.81
2016-09-12T16:38:36.443Z,50.15
2016-09-12T16:39:35.878Z,50.13
2016-09-12T16:41:37.258Z,49.68
2016-09-12T16:43:26.474Z,49.36
2016-09-12T16:44:38.670Z,49.17
2016-09-12T16:45:37.083Z,49.26
2016-09-12T16:46:41.302Z,49.61
2016-09-12T16:47:18.045Z,49.75
2016-09-12T16:48:38.206Z,49.86
2016-09-12T16:49:46.629Z,50.45
2016-09-12T16:51:19.649Z,50.42
2016-09-12T16:52:41.164Z,50.45
2016-09-12T16:53:35.541Z,50.49
2016-09-12T16:54:31.886Z,50.59
2016-09-12T16:55:44.086Z,50.66
2016-09-12T16:56:23.417Z,50.83
2016-09-12T16:57:42.762Z,50.95
2016-09-12T16:58:37.159Z,51.18
2016-09-12T16:59:23.949Z,51.40
2016-09-12T17:00:24.426Z,51.47
2016-09-12T17:01:37.224Z,51.75
2016-09-12T17:02:34.089Z,51.77
2016-09-12T17:03:30.682Z,52.56
2016-09-12T17:04:37.670Z,53.99
2016-09-12T17:05:38.130Z,54.35
2016-09-12T17:07:37.462Z,55.82
2016-09-12T17:08:33.643Z,56.29
2016-09-12T17:09:34.880Z,55.95
2016-09-12T17:10:40.490Z,56.74
2016-09-12T17:11:36.544Z,56.09
2016-09-12T17:12:37.925Z,54.86
2016-09-12T17:13:34.087Z,54.88
2016-09-12T17:15:43.640Z,55.13
2016-09-12T17:17:25.823Z,55.27
2016-09-12T17:20:23.828Z,55.74
2016-09-12T17:21:42.165Z,57.17
2016-09-12T17:22:36.569Z,56.61
2016-09-12T17:23:32.130Z,56.87
2016-09-12T17:25:29.913Z,57.53
2016-09-12T17:26:31.127Z,57.70
2016-09-12T17:28:35.429Z,59.03
2016-09-12T17:29:36.854Z,58.65
2016-09-12T17:30:24.866Z,59.83
2016-09-12T17:31:36.796Z,60.73
2016-09-12T17:32:36.670Z,61.56
2016-09-12T17:33:24.306Z,60.89
2016-09-12T17:34:24.978Z,62.15
2016-09-12T17:35:30.056Z,62.91
2016-09-12T17:36:32.922Z,63.71
2016-09-12T17:37:12.114Z,64.27
2016-09-12T17:38:20.944Z,64.62
2016-09-12T17:39:36.060Z,65.03
2016-09-12T17:41:09.986Z,65.20
2016-09-12T17:41:28.006Z,65.51
2016-09-12T17:42:34.461Z,65.52
2016-09-12T17:43:36.991Z,66.59
2016-09-12T17:44:34.026Z,66.94
2016-09-12T17:45:39.617Z,67.53
2016-09-12T17:46:25.608Z,68.06
2016-09-12T17:47:41.953Z,68.07
2016-09-12T17:48:36.382Z,68.32
2016-09-12T17:49:33.874Z,68.85
2016-09-12T17:50:35.013Z,68.99
2016-09-12T17:51:34.169Z,69.10
2016-09-12T17:52:36.593Z,69.54
2016-09-12T17:53:36.876Z,69.79
2016-09-12T17:54:37.212Z,69.89
2016-09-12T17:55:36.844Z,70.81
2016-09-12T17:56:34.675Z,71.03
2016-09-12T17:57:37.974Z,71.28
2016-09-12T17:58:39.541Z,71.23
2016-09-12T17:59:37.912Z,71.01
2016-09-12T18:00:34.976Z,71.51
2016-09-12T18:01:40.154Z,72.57
2016-09-12T18:02:41.775Z,72.56
2016-09-12T18:03:42.899Z,73.02
2016-09-12T18:04:34.461Z,73.49
2016-09-12T18:05:35.601Z,73.37
2016-09-12T18:06:34.692Z,73.65
2016-09-12T18:07:34.003Z,73.46
2016-09-12T18:08:28.378Z,73.27
2016-09-12T18:09:34.526Z,73.29
2016-09-12T18:10:46.795Z,73.80
2016-09-12T18:11:37.062Z,74.39
2016-09-12T18:12:34.439Z,74.49
2016-09-12T18:13:34.545Z,75.48
2016-09-12T18:14:37.173Z,75.51
2016-09-12T18:15:39.471Z,75.88
2016-09-12T18:16:39.350Z,75.69
2016-09-12T18:17:34.078Z,75.63
2016-09-12T18:18:33.333Z,75.78
2016-09-12T18:19:41.732Z,75.98
2016-09-12T18:20:39.071Z,76.32
2016-09-12T18:21:28.652Z,77.19
2016-09-12T18:22:24.444Z,77.08
2016-09-12T18:23:36.884Z,77.37
2016-09-12T18:24:35.023Z,77.26
2016-09-12T18:25:34.163Z,77.53
2016-09-12T18:26:31.159Z,77.81
2016-09-12T18:27:37.130Z,77.27
2016-09-12T18:28:24.387Z,77.16
2016-09-12T18:29:36.660Z,77.24
2016-09-12T18:30:31.321Z,77.50
2016-09-12T18:31:28.863Z,77.62
2016-09-12T18:32:33.300Z,77.47
2016-09-12T18:33:32.751Z,78.07
2016-09-12T18:35:34.592Z,78.80
2016-09-12T18:37:36.360Z,78.46
2016-09-12T18:38:36.761Z,78.33
2016-09-12T18:39:28.999Z,78.48
2016-09-12T18:40:34.320Z,78.74
2016-09-12T18:41:23.698Z,78.76
2016-09-12T18:42:24.444Z,79.34
2016-09-12T18:43:40.064Z,79.45
2016-09-12T18:44:33.663Z,79.18
2016-09-12T18:45:34.725Z,79.48
2016-09-12T18:46:37.033Z,79.50
2016-09-12T18:47:34.175Z,79.48
2016-09-12T18:48:34.280Z,80.04
2016-09-12T18:49:37.415Z,80.21
2016-09-12T18:50:38.381Z,80.39
2016-09-12T18:52:36.420Z,80.70
2016-09-12T18:53:26.930Z,80.60
2016-09-12T18:54:28.068Z,80.81
2016-09-12T18:55:31.043Z,80.56
2016-09-12T18:56:27.972Z,80.64
2016-09-12T18:57:28.155Z,80.85
2016-09-12T18:58:36.664Z,80.66
2016-09-12T18:59:29.881Z,81.05
2016-09-12T19:00:34.400Z,81.83
2016-09-12T19:01:27.954Z,81.89
2016-09-12T19:02:33.939Z,81.91
2016-09-12T19:03:27.893Z,82.22
2016-09-12T19:04:31.312Z,82.33
2016-09-12T19:05:35.393Z,82.36
2016-09-12T19:06:27.517Z,82.50
2016-09-12T19:07:24.684Z,82.93
2016-09-12T19:08:38.011Z,83.27
2016-09-12T19:09:34.664Z,83.73
2016-09-12T19:10:37.992Z,83.82
2016-09-12T19:11:34.001Z,83.80
2016-09-12T19:12:33.515Z,83.82
2016-09-12T19:13:33.661Z,83.93
2016-09-12T19:14:36.420Z,84.10
2016-09-12T19:15:34.636Z,84.09
2016-09-12T19:16:41.922Z,84.22
2016-09-12T19:17:39.782Z,84.26
2016-09-12T19:18:39.352Z,84.29
2016-09-12T19:19:34.131Z,83.94
2016-09-12T19:21:36.881Z,84.60
2016-09-12T19:22:25.161Z,84.99
2016-09-12T19:23:22.671Z,84.56
2016-09-12T19:24:32.241Z,84.63
2016-09-12T19:25:27.362Z,84.24
2016-09-12T19:26:32.540Z,85.17
2016-09-12T19:27:34.671Z,85.03
2016-09-12T19:28:24.225Z,84.84
2016-09-12T19:29:34.099Z,85.18
2016-09-12T19:30:23.812Z,85.58
2016-09-12T19:31:35.504Z,85.75
2016-09-12T19:32:29.345Z,85.92
2016-09-12T19:33:12.076Z,86.04
2016-09-12T19:34:07.787Z,86.08
2016-09-12T19:35:24.910Z,86.00
2016-09-12T19:36:24.877Z,86.34
2016-09-12T19:37:25.012Z,86.52
2016-09-12T19:39:36.913Z,87.12
2016-09-12T19:40:33.507Z,87.20
2016-09-12T19:41:39.843Z,87.40
2016-09-12T19:42:28.277Z,87.02
2016-09-12T19:43:23.887Z,87.27
2016-09-12T19:44:25.562Z,87.36
2016-09-12T19:45:26.133Z,87.54
2016-09-12T19:46:23.726Z,88.17
2016-09-12T19:47:29.939Z,88.35
2016-09-12T19:48:34.653Z,88.30
2016-09-12T19:49:28.604Z,88.14
2016-09-12T19:51:39.770Z,88.46
2016-09-12T19:52:34.388Z,88.41
2016-09-12T19:53:31.811Z,88.60
2016-09-12T19:54:29.208Z,88.28
2016-09-12T19:55:34.118Z,88.23
2016-09-12T19:56:42.054Z,88.47
2016-09-12T19:57:34.393Z,88.27
2016-09-12T19:58:25.613Z,88.07
2016-09-12T19:59:24.333Z,88.73